Terminal Aerodrome Forecast
Issued by NWS Portland, ME

Home | Current Version | Previous Version | Text Only | Print | Product List | Glossary On
Versions: 1 2 3 4 5 6 7 8 9 10 11 12 13 14 15 16 17 18 19 20
000
FTUS41 KGYX 261728
TAFCON
TAF
KCON 261728Z 2618/2718 34006KT 1/4SM +SN FZFG VV004
      TEMPO 2618/2620 1SM -SN BR VV007
     FM270000 34014G26KT 1/2SM SN BLSN FZFG VV006
     FM270300 34017G27KT 1SM -SN BR BKN008 OVC012
     FM270900 32011KT 5SM -SHSN BR BKN025 OVC040
     FM271400 32005KT P6SM BKN045 OVC070=

USA.gov is the U.S. government's official web portal to all federal, state and local government web resources and services.